Time;durP1;ratioP1;P1;durP2;ratioP2;P2;SDS_P1;SDS_P2;PMS_P1;PMS_P2;Temp;Humidity;BMP_temperature;BMP_pressure;BME280_temperature;BME280_humidity;BME280_pressure;Samples;Min_cycle;Max_cycle;Signal;HPM_P1;HPM_P2
2022/03/30 00:00:10;;;;;;;23.08;8.50;;;5.10;99.90;;;;;;5055384;28;20048;-79
2022/03/30 00:02:36;;;;;;;23.23;8.68;;;5.10;99.90;;;;;;5057272;28;20049;-79
2022/03/30 00:05:02;;;;;;;21.00;7.93;;;5.10;99.90;;;;;;5039727;28;20181;-79
2022/03/30 00:07:31;;;;;;;21.30;8.75;;;5.10;99.90;;;;;;5057898;28;20502;-79
2022/03/30 00:10:07;;;;;;;22.80;8.70;;;5.00;99.90;;;;;;5057209;28;20084;-79
2022/03/30 00:12:34;;;;;;;18.88;8.40;;;5.00;99.90;;;;;;5056288;28;20041;-79
2022/03/30 00:15:00;;;;;;;21.65;8.52;;;5.00;99.90;;;;;;5023278;28;20473;-79
2022/03/30 00:17:26;;;;;;;21.08;9.18;;;4.90;99.90;;;;;;5057099;28;20179;-78
2022/03/30 00:19:51;;;;;;;23.50;8.87;;;4.90;99.90;;;;;;5057086;28;20044;-79
2022/03/30 00:22:17;;;;;;;24.48;9.00;;;5.00;99.90;;;;;;5056978;28;20095;-79
2022/03/30 00:24:43;;;;;;;22.98;8.48;;;4.80;99.90;;;;;;5057159;28;20041;-79
2022/03/30 00:27:13;;;;;;;27.92;9.63;;;4.60;99.90;;;;;;5056945;28;20052;-79
2022/03/30 00:29:38;;;;;;;24.13;9.40;;;4.70;99.90;;;;;;5056964;28;20084;-79
2022/03/30 00:32:05;;;;;;;20.95;8.90;;;4.80;99.90;;;;;;5056571;28;20453;-79
2022/03/30 00:34:30;;;;;;;16.33;8.27;;;4.60;99.90;;;;;;5056881;28;20440;-79
2022/03/30 00:36:56;;;;;;;21.52;8.68;;;4.60;99.90;;;;;;5056828;28;20049;-79
2022/03/30 00:39:22;;;;;;;20.48;8.73;;;4.50;99.90;;;;;;5056712;28;20136;-79
2022/03/30 00:41:47;;;;;;;22.25;8.48;;;4.50;99.90;;;;;;5056894;28;20131;-78
2022/03/30 00:44:14;;;;;;;18.58;9.07;;;4.50;99.90;;;;;;5056743;28;20469;-78
2022/03/30 00:46:44;;;;;;;23.83;9.00;;;4.40;99.90;;;;;;5056527;28;20059;-78
2022/03/30 00:49:13;;;;;;;22.98;9.30;;;4.40;99.90;;;;;;5038897;28;20048;-77
2022/03/30 00:51:39;;;;;;;20.38;8.73;;;4.40;99.90;;;;;;5039209;28;20045;-79
2022/03/30 00:54:05;;;;;;;20.90;9.40;;;4.40;99.90;;;;;;5056828;28;20098;-78
2022/03/30 00:56:32;;;;;;;20.83;8.30;;;4.30;99.90;;;;;;5056672;28;20514;-78
2022/03/30 00:59:01;;;;;;;22.75;9.18;;;4.30;99.90;;;;;;5056548;28;20052;-78
2022/03/30 01:01:27;;;;;;;21.80;9.02;;;4.20;99.90;;;;;;5056365;28;20048;-78
2022/03/30 01:03:53;;;;;;;19.13;8.35;;;4.20;99.90;;;;;;5056393;28;20076;-79
2022/03/30 01:06:18;;;;;;;24.30;9.23;;;4.20;99.90;;;;;;5056442;28;20130;-78
2022/03/30 01:08:45;;;;;;;20.50;9.38;;;4.20;99.90;;;;;;5056663;28;20503;-78
2022/03/30 01:11:12;;;;;;;19.98;8.75;;;4.20;99.90;;;;;;5054929;28;20075;-79
2022/03/30 01:13:40;;;;;;;22.42;9.23;;;4.20;99.90;;;;;;5056233;28;20126;-79
2022/03/30 01:16:06;;;;;;;25.05;9.25;;;4.20;99.90;;;;;;5056013;28;20378;-79
2022/03/30 01:18:41;;;;;;;25.73;9.63;;;4.10;99.90;;;;;;5056049;28;20106;-80
2022/03/30 01:21:10;;;;;;;22.98;8.88;;;4.10;99.90;;;;;;5038590;28;20144;-79
2022/03/30 01:23:35;;;;;;;23.00;9.27;;;4.10;99.90;;;;;;5055841;28;20051;-78
2022/03/30 01:26:04;;;;;;;24.35;9.55;;;4.10;99.90;;;;;;5056071;28;20123;-79
2022/03/30 01:28:32;;;;;;;21.63;10.30;;;4.10;99.90;;;;;;5055701;28;20052;-79
2022/03/30 01:33:44;;;;;;;22.15;10.25;;;4.10;99.90;;;;;;5055721;28;20056;-79
2022/03/30 01:36:10;;;;;;;21.77;9.90;;;4.00;99.90;;;;;;5055630;28;20051;-78
2022/03/30 01:38:36;;;;;;;25.38;9.32;;;4.00;99.90;;;;;;5055627;28;20045;-78
2022/03/30 01:41:01;;;;;;;21.33;8.95;;;4.00;99.90;;;;;;5055379;28;20044;-77
2022/03/30 01:43:28;;;;;;;31.33;9.98;;;4.00;99.90;;;;;;5055861;28;20095;-78
2022/03/30 01:45:55;;;;;;;22.35;10.25;;;4.00;99.90;;;;;;5054323;28;20036;-78
2022/03/30 01:48:21;;;;;;;24.45;9.52;;;4.00;99.90;;;;;;5038262;28;20048;-78
2022/03/30 01:50:46;;;;;;;20.27;9.13;;;3.90;99.90;;;;;;5055373;28;20092;-78
2022/03/30 01:53:13;;;;;;;25.75;9.48;;;3.90;99.90;;;;;;5055332;28;20083;-78
2022/03/30 01:55:38;;;;;;;17.73;9.20;;;3.90;99.90;;;;;;5055287;28;20183;-78
2022/03/30 01:58:05;;;;;;;22.52;9.65;;;3.90;99.90;;;;;;5055235;28;20053;-78
2022/03/30 02:00:30;;;;;;;21.20;9.20;;;3.80;99.90;;;;;;5055231;28;20419;-78
2022/03/30 02:02:56;;;;;;;19.92;7.88;;;3.80;99.90;;;;;;5055091;28;20041;-78
2022/03/30 02:05:22;;;;;;;19.90;8.35;;;3.80;99.90;;;;;;5037447;28;20045;-78
2022/03/30 02:07:48;;;;;;;20.83;8.40;;;3.70;99.90;;;;;;5055383;28;20095;-79
2022/03/30 02:10:14;;;;;;;21.42;8.48;;;3.70;99.90;;;;;;5037458;28;20126;-80
2022/03/30 02:12:40;;;;;;;22.13;9.10;;;3.60;99.90;;;;;;5055651;28;20122;-79
2022/03/30 02:15:07;;;;;;;22.27;9.15;;;3.60;99.90;;;;;;5054943;28;20488;-80
2022/03/30 02:17:33;;;;;;;;;;;3.60;99.90;;;;;;5055558;28;20102;-80
2022/03/30 02:19:59;;;;;;;26.10;9.43;;;3.60;99.90;;;;;;5054803;28;20353;-79
2022/03/30 02:22:25;;;;;;;23.70;9.57;;;3.50;99.90;;;;;;5054399;28;20063;-79
2022/03/30 02:24:51;;;;;;;23.73;11.25;;;3.50;99.90;;;;;;5054747;28;20053;-79
2022/03/30 02:27:19;;;;;;;23.33;9.77;;;3.50;99.90;;;;;;5054697;28;20056;-79
2022/03/30 02:29:46;;;;;;;18.85;10.20;;;3.50;99.90;;;;;;5054248;28;20064;-79
2022/03/30 02:32:12;;;;;;;19.15;9.50;;;3.50;99.90;;;;;;5054569;28;20443;-79
2022/03/30 02:34:38;;;;;;;22.27;9.75;;;3.50;99.90;;;;;;5054576;28;20045;-79
2022/03/30 02:37:04;;;;;;;21.20;10.30;;;3.50;99.90;;;;;;5036605;28;20084;-79
2022/03/30 02:39:30;;;;;;;24.40;11.20;;;3.60;99.90;;;;;;5054366;28;20084;-79
2022/03/30 02:41:56;;;;;;;22.77;9.75;;;3.60;99.90;;;;;;5054444;28;20053;-79
2022/03/30 02:44:22;;;;;;;23.77;9.45;;;3.70;99.90;;;;;;5054269;28;20056;-79
2022/03/30 02:46:48;;;;;;;23.85;10.07;;;3.70;99.90;;;;;;5054102;28;20485;-79
2022/03/30 02:49:14;;;;;;;19.88;10.20;;;3.80;99.90;;;;;;5054286;28;20059;-78
2022/03/30 02:51:40;;;;;;;26.73;11.30;;;3.80;99.90;;;;;;5054048;28;20048;-79
2022/03/30 02:54:06;;;;;;;23.45;11.02;;;3.80;99.90;;;;;;5054181;28;20044;-79
2022/03/30 02:56:33;;;;;;;22.17;10.63;;;3.80;99.90;;;;;;5054166;28;20041;-79
2022/03/30 02:58:58;;;;;;;27.40;11.05;;;3.90;99.90;;;;;;5054151;28;20122;-79
2022/03/30 03:01:24;;;;;;;24.83;11.50;;;3.90;99.90;;;;;;5054042;28;20477;-79
2022/03/30 03:03:49;;;;;;;25.75;11.63;;;4.00;99.90;;;;;;5053787;28;20477;-79
2022/03/30 03:06:15;;;;;;;30.23;12.02;;;4.00;99.90;;;;;;5036302;28;20476;-80
2022/03/30 03:08:41;;;;;;;22.88;10.77;;;4.00;99.90;;;;;;5053954;28;20048;-79
2022/03/30 03:11:06;;;;;;;27.45;11.73;;;4.00;99.90;;;;;;5053616;28;20048;-77
2022/03/30 03:13:32;;;;;;;24.30;12.00;;;4.00;99.90;;;;;;5054032;28;20037;-78
2022/03/30 03:15:57;;;;;;;29.58;12.10;;;4.00;99.90;;;;;;5036456;28;20488;-77
2022/03/30 03:18:23;;;;;;;28.98;12.23;;;4.10;99.90;;;;;;5036137;28;20392;-78
2022/03/30 03:20:49;;;;;;;24.50;11.90;;;4.10;99.90;;;;;;5053724;28;20384;-77
2022/03/30 03:23:16;;;;;;;28.10;12.32;;;4.10;99.90;;;;;;5053811;28;20122;-78
2022/03/30 03:25:43;;;;;;;24.90;11.07;;;4.20;99.90;;;;;;5053604;28;20041;-77
2022/03/30 03:28:09;;;;;;;26.60;11.68;;;4.20;99.90;;;;;;5036130;28;20048;-77
2022/03/30 03:30:36;;;;;;;28.52;12.00;;;4.30;99.90;;;;;;5053721;28;20053;-79
2022/03/30 03:33:02;;;;;;;29.27;11.55;;;4.30;99.90;;;;;;5053534;28;20480;-79
2022/03/30 03:35:29;;;;;;;23.90;11.07;;;4.30;99.90;;;;;;5035622;28;20107;-79
2022/03/30 03:37:55;;;;;;;25.27;10.73;;;4.30;99.90;;;;;;5053605;28;20083;-79
2022/03/30 03:40:20;;;;;;;30.67;11.32;;;4.60;99.90;;;;;;5035680;28;20106;-79
2022/03/30 03:42:46;;;;;;;24.60;10.40;;;4.30;99.90;;;;;;5036481;28;20044;-78
2022/03/30 03:45:12;;;;;;;25.40;10.98;;;4.30;99.90;;;;;;5053488;28;20048;-79
2022/03/30 03:47:38;;;;;;;29.90;12.77;;;4.30;99.90;;;;;;5053520;28;20041;-79
2022/03/30 03:50:04;;;;;;;28.05;12.52;;;4.40;99.90;;;;;;5053648;28;20067;-79
2022/03/30 03:52:31;;;;;;;23.67;11.27;;;4.40;99.90;;;;;;5053417;28;20474;-79
2022/03/30 03:54:56;;;;;;;27.92;12.18;;;4.40;99.90;;;;;;5053368;28;20132;-79
2022/03/30 03:57:22;;;;;;;21.65;11.70;;;4.40;99.90;;;;;;5053493;28;20117;-79
2022/03/30 03:59:48;;;;;;;23.40;12.85;;;4.50;99.90;;;;;;5053331;28;20041;-79
2022/03/30 04:02:13;;;;;;;28.27;12.75;;;4.50;99.90;;;;;;5053306;28;20041;-79
2022/03/30 04:04:39;;;;;;;29.95;11.35;;;4.50;99.90;;;;;;5035453;28;20048;-79
2022/03/30 04:07:05;;;;;;;23.35;11.55;;;4.50;99.90;;;;;;5053090;28;20045;-78
2022/03/30 04:09:31;;;;;;;27.67;12.35;;;4.50;99.90;;;;;;5053055;28;20049;-79
2022/03/30 04:11:56;;;;;;;27.48;11.90;;;4.50;99.90;;;;;;5053210;28;20041;-79
2022/03/30 04:14:22;;;;;;;26.45;12.27;;;4.50;99.90;;;;;;5053165;28;20037;-79
2022/03/30 04:16:48;;;;;;;21.73;11.00;;;4.60;99.90;;;;;;5053249;28;20122;-79
2022/03/30 04:19:17;;;;;;;24.38;11.82;;;4.60;99.90;;;;;;5053358;28;20041;-79
2022/03/30 04:21:43;;;;;;;30.58;13.02;;;4.60;99.90;;;;;;5052847;28;20448;-79
2022/03/30 04:24:09;;;;;;;26.83;13.15;;;4.60;99.90;;;;;;5052794;28;20045;-80
2022/03/30 04:26:35;;;;;;;29.42;12.73;;;4.50;99.90;;;;;;5053175;28;20458;-79
2022/03/30 04:29:00;;;;;;;30.65;12.98;;;4.60;99.90;;;;;;5052708;28;20421;-79
2022/03/30 04:31:26;;;;;;;29.23;12.85;;;4.70;99.90;;;;;;5053354;28;20500;-79
2022/03/30 04:33:53;;;;;;;26.55;12.63;;;4.50;99.90;;;;;;5053064;28;20163;-80
2022/03/30 04:36:19;;;;;;;27.85;13.20;;;4.50;99.90;;;;;;5053008;28;20090;-80
2022/03/30 04:38:45;;;;;;;25.60;13.02;;;4.50;99.90;;;;;;5035484;28;20408;-79
2022/03/30 04:41:10;;;;;;;27.80;12.18;;;4.50;99.90;;;;;;5053065;28;20045;-80
2022/03/30 04:43:36;;;;;;;27.70;13.20;;;4.70;99.90;;;;;;5052812;28;20472;-80
2022/03/30 04:46:01;;;;;;;25.63;13.38;;;4.50;99.90;;;;;;5036939;28;20084;-80
2022/03/30 04:48:27;;;;;;;28.83;13.57;;;4.60;99.90;;;;;;5056592;28;20036;-79
2022/03/30 04:50:53;;;;;;;30.17;13.10;;;4.60;99.90;;;;;;5056377;28;20049;-80
2022/03/30 04:53:18;;;;;;;28.35;13.38;;;4.60;99.90;;;;;;5056455;28;20037;-79
2022/03/30 04:55:44;;;;;;;35.90;13.57;;;4.60;99.90;;;;;;5056930;28;20048;-80
2022/03/30 04:58:10;;;;;;;28.45;13.20;;;4.60;99.90;;;;;;5056179;28;20071;-79
2022/03/30 05:00:36;;;;;;;30.48;14.43;;;4.60;99.90;;;;;;5056457;28;20095;-80
2022/03/30 05:03:03;;;;;;;28.05;13.65;;;4.60;99.90;;;;;;5038390;28;20067;-79
2022/03/30 05:05:29;;;;;;;27.15;13.27;;;4.60;99.90;;;;;;5038959;28;20089;-80
2022/03/30 05:07:57;;;;;;;29.65;13.57;;;4.60;99.90;;;;;;5056201;28;20049;-79
2022/03/30 05:10:24;;;;;;;26.65;12.73;;;4.60;99.90;;;;;;5056199;28;20052;-80
2022/03/30 05:12:50;;;;;;;24.20;12.25;;;4.70;99.90;;;;;;5056257;28;20374;-79
2022/03/30 05:15:16;;;;;;;31.60;14.10;;;4.70;99.90;;;;;;5056381;28;20041;-80
2022/03/30 05:17:46;;;;;;;26.88;13.35;;;4.70;99.90;;;;;;5056031;28;20049;-80
2022/03/30 05:20:16;;;;;;;27.13;12.15;;;4.70;99.90;;;;;;5056086;28;20056;-80
2022/03/30 05:22:43;;;;;;;32.38;13.48;;;4.70;99.90;;;;;;5056175;28;20106;-78
2022/03/30 05:25:10;;;;;;;25.30;12.40;;;4.70;99.90;;;;;;5055765;28;20056;-79
2022/03/30 05:27:38;;;;;;;31.02;13.50;;;4.70;99.90;;;;;;5038301;28;20041;-78
2022/03/30 05:30:04;;;;;;;25.67;12.75;;;4.80;99.90;;;;;;5055557;28;20483;-78
2022/03/30 05:32:29;;;;;;;27.00;12.90;;;4.80;99.90;;;;;;5055908;28;20041;-78
2022/03/30 05:34:56;;;;;;;30.08;12.93;;;4.80;99.90;;;;;;5055524;28;20060;-78
2022/03/30 05:37:23;;;;;;;28.10;12.88;;;4.80;99.90;;;;;;5055583;28;20045;-79
2022/03/30 05:39:49;;;;;;;34.30;14.68;;;4.80;99.90;;;;;;5055962;28;20049;-78
2022/03/30 05:42:15;;;;;;;35.38;14.38;;;4.80;99.90;;;;;;5055498;28;20052;-77
2022/03/30 05:44:41;;;;;;;29.00;13.18;;;4.80;99.90;;;;;;5055477;28;20428;-78
2022/03/30 05:47:07;;;;;;;31.90;14.43;;;4.90;99.90;;;;;;5037815;28;20063;-79
2022/03/30 05:49:34;;;;;;;34.33;13.75;;;4.90;99.90;;;;;;5055305;28;20564;-77
2022/03/30 05:52:00;;;;;;;28.58;13.98;;;4.80;99.90;;;;;;5055386;28;20045;-76
2022/03/30 05:54:25;;;;;;;34.15;14.38;;;4.90;99.90;;;;;;5055284;28;20067;-76
2022/03/30 05:57:00;;;;;;;30.90;13.38;;;4.90;99.90;;;;;;5054603;28;20052;-77
2022/03/30 05:59:26;;;;;;;33.58;13.70;;;4.80;99.90;;;;;;5037719;28;20044;-76
2022/03/30 06:01:52;;;;;;;30.73;14.23;;;4.90;99.90;;;;;;5055011;28;20488;-75
2022/03/30 06:04:18;;;;;;;30.05;13.55;;;4.90;99.90;;;;;;5055052;28;20102;-76
2022/03/30 06:06:44;;;;;;;28.00;12.20;;;4.90;99.90;;;;;;5037252;28;20045;-75
2022/03/30 06:09:09;;;;;;;29.77;13.85;;;4.90;99.90;;;;;;5054892;28;20396;-75
2022/03/30 06:11:35;;;;;;;32.28;11.73;;;5.00;99.90;;;;;;5055010;28;20052;-77
2022/03/30 06:14:00;;;;;;;28.02;12.20;;;5.00;99.90;;;;;;5054896;28;20048;-76
2022/03/30 06:16:27;;;;;;;25.67;10.55;;;5.00;99.90;;;;;;5055019;28;20048;-76
2022/03/30 06:18:54;;;;;;;23.38;10.32;;;5.00;99.90;;;;;;5054542;28;20041;-76
2022/03/30 06:21:20;;;;;;;26.88;10.70;;;5.00;99.90;;;;;;5053667;28;20041;-77
2022/03/30 06:23:46;;;;;;;17.98;7.88;;;5.10;99.90;;;;;;5054042;28;20595;-77
2022/03/30 06:26:11;;;;;;;24.65;9.50;;;5.10;99.90;;;;;;5054720;28;20052;-79
2022/03/30 06:28:37;;;;;;;17.80;5.88;;;5.10;99.90;;;;;;5054877;28;20132;-78
2022/03/30 06:31:03;;;;;;;13.32;5.47;;;5.10;99.90;;;;;;5054513;28;20053;-77
2022/03/30 06:33:29;;;;;;;8.65;4.60;;;5.10;99.90;;;;;;5054665;28;20048;-76
2022/03/30 06:35:56;;;;;;;9.57;3.42;;;5.20;99.90;;;;;;5054507;28;20048;-76
2022/03/30 06:38:22;;;;;;;3.45;2.10;;;5.20;99.90;;;;;;5054525;28;20131;-76
2022/03/30 06:40:47;;;;;;;3.45;1.85;;;5.30;99.90;;;;;;5054604;28;20110;-76
2022/03/30 06:43:14;;;;;;;2.28;1.42;;;5.30;99.90;;;;;;5054340;28;20067;-77
2022/03/30 06:45:40;;;;;;;2.22;1.40;;;5.40;99.90;;;;;;5036703;28;20488;-77
2022/03/30 06:48:06;;;;;;;1.73;1.30;;;5.40;99.90;;;;;;5054395;28;20080;-78
2022/03/30 06:50:32;;;;;;;3.28;1.30;;;5.50;99.90;;;;;;5054099;28;20056;-79
2022/03/30 06:52:59;;;;;;;2.70;1.38;;;5.50;99.90;;;;;;5054198;28;20051;-79
2022/03/30 06:55:25;;;;;;;3.03;1.40;;;5.50;99.90;;;;;;5054451;28;20098;-79
2022/03/30 06:57:51;;;;;;;2.00;1.50;;;5.50;99.90;;;;;;5036363;28;20043;-79
2022/03/30 07:00:17;;;;;;;2.08;1.40;;;5.50;99.90;;;;;;5054073;28;20494;-79
2022/03/30 07:02:43;;;;;;;5.32;1.70;;;5.50;99.90;;;;;;5054006;28;20070;-78
2022/03/30 07:05:10;;;;;;;2.17;1.60;;;5.60;99.90;;;;;;5053708;28;20120;-77
2022/03/30 07:10:20;;;;;;;4.07;1.73;;;5.60;99.90;;;;;;5034086;28;20409;-78
2022/03/30 07:12:47;;;;;;;2.55;1.40;;;6.00;99.90;;;;;;5033833;28;20053;-79
2022/03/30 07:15:15;;;;;;;3.53;1.60;;;5.70;99.90;;;;;;5033631;28;20068;-78
2022/03/30 07:17:51;;;;;;;2.05;1.40;;;5.70;99.90;;;;;;5032671;28;20055;-79
2022/03/30 07:20:18;;;;;;;1.98;1.52;;;5.80;99.90;;;;;;5034034;28;20520;-79
2022/03/30 07:22:44;;;;;;;2.45;1.48;;;5.90;99.90;;;;;;5033152;28;20516;-79
2022/03/30 07:25:11;;;;;;;4.05;1.67;;;6.00;99.90;;;;;;5033804;28;20045;-79
2022/03/30 07:27:41;;;;;;;;;;;6.00;99.90;;;;;;5034128;28;20067;-79
2022/03/30 07:30:08;;;;;;;2.13;1.48;;;6.00;99.90;;;;;;5033477;28;19951;-79
2022/03/30 07:32:36;;;;;;;2.92;1.40;;;6.10;99.90;;;;;;5016277;28;20525;-79
2022/03/30 07:35:03;;;;;;;6.20;1.70;;;6.20;99.90;;;;;;5033533;28;20048;-79
2022/03/30 07:37:28;;;;;;;;;;;6.20;99.90;;;;;;5033743;28;20037;-79
2022/03/30 07:39:54;;;;;;;2.38;1.70;;;6.20;99.90;;;;;;5033575;28;20365;-79
2022/03/30 07:42:20;;;;;;;1.60;1.27;;;6.30;99.90;;;;;;5016180;28;20048;-79
2022/03/30 07:44:45;;;;;;;1.80;1.15;;;6.30;99.90;;;;;;5033403;28;20041;-78
2022/03/30 07:47:11;;;;;;;1.63;1.13;;;6.40;99.90;;;;;;5032948;28;20052;-79
2022/03/30 07:49:36;;;;;;;1.42;1.10;;;6.60;99.90;;;;;;5033679;28;20128;-80
2022/03/30 07:52:03;;;;;;;2.83;1.25;;;6.60;99.90;;;;;;5033191;28;20049;-81
2022/03/30 07:54:29;;;;;;;1.90;1.40;;;6.60;99.90;;;;;;5015776;28;20120;-81
2022/03/30 07:56:55;;;;;;;2.33;1.43;;;6.60;99.90;;;;;;5015865;28;20049;-79
2022/03/30 07:59:20;;;;;;;1.75;1.35;;;6.60;99.90;;;;;;5015770;28;20906;-81
2022/03/30 08:01:46;;;;;;;1.40;1.15;;;6.60;99.90;;;;;;5015900;28;20100;-80
2022/03/30 08:04:12;;;;;;;1.80;1.10;;;6.60;99.90;;;;;;5033334;28;20121;-80
2022/03/30 08:06:38;;;;;;;1.95;1.15;;;6.60;99.90;;;;;;5032982;28;20072;-78
2022/03/30 08:09:04;;;;;;;2.85;1.17;;;6.60;99.90;;;;;;5033054;28;20049;-81
2022/03/30 08:11:30;;;;;;;1.65;1.20;;;6.50;99.90;;;;;;5016003;28;20038;-82
2022/03/30 08:13:56;;;;;;;2.00;1.20;;;6.50;99.90;;;;;;5033196;28;20454;-77
2022/03/30 08:16:22;;;;;;;2.17;1.20;;;6.40;99.90;;;;;;5033070;28;20045;-79
2022/03/30 08:18:48;;;;;;;2.47;1.20;;;6.40;99.90;;;;;;5033290;28;20612;-76
2022/03/30 08:23:57;;;;;;;4.43;1.30;;;6.40;99.90;;;;;;5036686;28;20128;-80
2022/03/30 08:26:23;;;;;;;2.05;1.30;;;6.40;99.90;;;;;;5035464;28;20148;-78
2022/03/30 08:28:49;;;;;;;1.88;1.20;;;6.50;99.90;;;;;;5015902;28;20482;-78
2022/03/30 08:31:15;;;;;;;1.52;1.23;;;6.50;99.90;;;;;;5000449;28;20050;-78
2022/03/30 08:33:40;;;;;;;2.75;1.23;;;6.50;99.90;;;;;;5034087;28;20050;-79
2022/03/30 08:36:07;;;;;;;1.85;1.27;;;6.60;99.90;;;;;;4999883;28;20049;-78
2022/03/30 08:38:33;;;;;;;3.85;1.48;;;6.70;99.90;;;;;;5011477;28;20057;-78
2022/03/30 08:40:59;;;;;;;3.03;1.50;;;6.70;99.90;;;;;;5019877;28;20504;-76
2022/03/30 08:43:29;;;;;;;2.58;0.98;;;6.80;99.90;;;;;;5035996;28;20404;-79
2022/03/30 08:45:58;;;;;;;1.85;1.40;;;6.80;99.90;;;;;;5036602;28;20401;-79
2022/03/30 08:48:23;;;;;;;2.38;1.20;;;6.90;99.90;;;;;;5036499;28;20050;-78
2022/03/30 08:50:51;;;;;;;4.05;1.20;;;6.90;99.90;;;;;;5019571;28;20046;-82
2022/03/30 08:53:18;;;;;;;1.73;1.00;;;7.00;99.90;;;;;;5037326;28;20046;-78
2022/03/30 08:55:44;;;;;;;2.63;1.00;;;7.00;99.90;;;;;;5036940;28;20528;-78
2022/03/30 08:58:10;;;;;;;2.75;1.10;;;7.00;99.90;;;;;;5037109;28;20049;-77
2022/03/30 09:00:36;;;;;;;1.17;0.90;;;7.00;99.90;;;;;;5037178;28;20102;-79
2022/03/30 09:03:03;;;;;;;1.13;0.98;;;7.20;99.90;;;;;;5036579;28;20041;-79
2022/03/30 09:05:30;;;;;;;;;;;6.90;99.90;;;;;;5020250;28;20548;-79
2022/03/30 09:08:18;;;;;;;2.15;1.23;;;6.90;99.90;;;;;;5036483;28;20389;-79
2022/03/30 09:10:46;;;;;;;5.53;1.30;;;6.90;99.90;;;;;;5019183;28;20056;-79
2022/03/30 09:13:19;;;;;;;1.73;1.10;;;7.00;99.90;;;;;;5036283;28;20045;-80
2022/03/30 09:15:50;;;;;;;2.28;1.10;;;7.10;99.90;;;;;;5015428;28;20057;-80
2022/03/30 09:18:17;;;;;;;2.78;1.17;;;7.10;99.90;;;;;;5015068;28;20050;-80
2022/03/30 09:20:46;;;;;;;1.65;0.98;;;7.20;99.90;;;;;;5016285;28;20473;-79
2022/03/30 09:23:13;;;;;;;2.65;1.10;;;7.20;99.90;;;;;;5015016;28;20160;-78
2022/03/30 09:25:44;;;;;;;3.13;1.27;;;7.30;99.90;;;;;;5016846;28;20042;-82
2022/03/30 09:28:10;;;;;;;1.98;1.00;;;7.40;99.90;;;;;;5016015;28;20042;-79
2022/03/30 09:30:36;;;;;;;1.90;1.00;;;7.40;99.90;;;;;;5017100;28;20514;-80
2022/03/30 09:33:01;;;;;;;2.00;1.10;;;7.50;99.90;;;;;;5031430;28;20294;-80
2022/03/30 09:35:34;;;;;;;2.22;1.13;;;7.70;99.90;;;;;;5035798;28;20137;-79
2022/03/30 09:38:10;;;;;;;1.40;0.93;;;7.80;99.90;;;;;;5035716;28;20053;-80
2022/03/30 09:41:03;;;;;;;1.80;0.83;;;7.60;99.90;;;;;;5036190;28;20437;-78
2022/03/30 09:43:33;;;;;;;2.03;1.10;;;7.70;99.90;;;;;;5037388;28;20049;-80
2022/03/30 09:46:02;;;;;;;2.10;1.10;;;7.80;99.90;;;;;;5036516;28;20037;-79
2022/03/30 09:48:29;;;;;;;4.05;1.30;;;7.80;99.90;;;;;;5036390;28;20136;-79
2022/03/30 09:50:56;;;;;;;2.55;1.02;;;7.80;99.90;;;;;;5017883;28;20056;-78
2022/03/30 09:53:28;;;;;;;2.80;1.00;;;7.90;99.90;;;;;;5036938;28;20038;-78
2022/03/30 09:56:13;;;;;;;4.53;1.48;;;8.10;99.90;;;;;;5035804;28;20049;-78
2022/03/30 09:58:39;;;;;;;3.67;1.40;;;8.00;99.90;;;;;;5035888;28;20046;-81
2022/03/30 10:01:08;;;;;;;3.53;1.38;;;8.10;99.90;;;;;;5035750;28;20049;-80
2022/03/30 10:03:42;;;;;;;3.13;1.25;;;8.10;99.90;;;;;;5034476;28;20041;-79
2022/03/30 10:06:09;;;;;;;2.03;1.20;;;8.20;99.90;;;;;;5030879;28;20046;-79
2022/03/30 10:08:35;;;;;;;2.95;1.02;;;8.10;99.90;;;;;;5017780;28;20108;-79
2022/03/30 10:11:01;;;;;;;5.20;1.27;;;8.20;99.90;;;;;;5035650;28;20513;-80
2022/03/30 10:13:28;;;;;;;3.10;1.40;;;8.40;99.90;;;;;;5016023;28;20567;-78
2022/03/30 10:15:53;;;;;;;2.50;1.20;;;8.60;99.90;;;;;;5034375;28;20076;-82
2022/03/30 10:18:20;;;;;;;2.05;1.27;;;8.70;99.90;;;;;;5034689;28;20045;-78
2022/03/30 10:21:01;;;;;;;1.90;1.10;;;8.80;99.90;;;;;;5034545;28;20045;-77
2022/03/30 10:24:01;;;;;;;3.28;1.30;;;8.80;99.90;;;;;;5034863;28;20370;-77
2022/03/30 10:26:56;;;;;;;3.25;1.20;;;8.90;99.90;;;;;;5034997;28;20041;-80
2022/03/30 10:29:24;;;;;;;4.97;1.30;;;8.90;99.90;;;;;;5034513;28;20394;-77
2022/03/30 10:32:12;;;;;;;3.22;1.30;;;9.10;99.90;;;;;;5016935;28;20140;-78
2022/03/30 10:34:53;;;;;;;2.42;1.15;;;9.10;99.90;;;;;;5034637;28;20055;-77
2022/03/30 10:37:27;;;;;;;2.65;1.42;;;9.10;99.90;;;;;;5034600;28;20530;-77
2022/03/30 10:40:07;;;;;;;3.72;1.15;;;8.90;99.90;;;;;;5017150;28;20052;-78
2022/03/30 10:42:47;;;;;;;4.57;1.30;;;9.00;99.90;;;;;;5034601;28;20041;-81
2022/03/30 10:45:25;;;;;;;4.75;1.48;;;8.90;99.90;;;;;;5033880;28;20095;-79
2022/03/30 10:48:14;;;;;;;6.50;1.60;;;8.80;99.90;;;;;;5034170;28;20053;-82
2022/03/30 10:50:44;;;;;;;4.80;1.30;;;8.90;99.90;;;;;;5034135;28;20042;-81
2022/03/30 10:53:34;;;;;;;5.05;1.40;;;9.00;99.90;;;;;;5034193;28;20057;-80
2022/03/30 10:56:08;;;;;;;6.07;1.38;;;9.10;99.90;;;;;;5016769;28;20183;-80
2022/03/30 10:59:00;;;;;;;3.65;1.20;;;9.30;99.90;;;;;;5034340;28;20049;-81
2022/03/30 11:01:29;;;;;;;4.35;1.10;;;9.30;99.90;;;;;;5033572;28;20124;-81
2022/03/30 11:03:59;;;;;;;3.97;1.02;;;9.30;99.90;;;;;;5033840;28;20099;-80
2022/03/30 11:06:26;;;;;;;3.35;1.23;;;9.30;99.90;;;;;;5033750;28;20084;-80
2022/03/30 11:08:55;;;;;;;4.38;1.38;;;9.20;99.90;;;;;;5033456;28;20076;-78
2022/03/30 11:11:39;;;;;;;3.15;1.15;;;9.20;99.90;;;;;;4999664;28;20151;-80
2022/03/30 11:14:36;;;;;;;5.35;1.20;;;9.30;99.90;;;;;;5033211;28;20064;-81
2022/03/30 11:17:10;;;;;;;4.25;1.25;;;9.60;99.90;;;;;;5034073;28;20048;-81
2022/03/30 11:19:48;;;;;;;3.47;1.30;;;9.50;99.90;;;;;;5033663;28;20081;-82
2022/03/30 11:22:22;;;;;;;2.53;1.10;;;9.50;99.90;;;;;;5016346;28;20045;-83
2022/03/30 11:25:08;;;;;;;1.55;1.02;;;9.50;99.90;;;;;;5033492;28;20041;-82
2022/03/30 11:27:34;;;;;;;3.55;1.20;;;9.50;99.90;;;;;;5016255;28;20131;-80
2022/03/30 11:30:04;;;;;;;4.60;1.35;;;9.50;99.90;;;;;;5015775;28;20097;-80
2022/03/30 11:32:53;;;;;;;1.98;1.10;;;9.50;99.90;;;;;;5033686;28;20433;-80
2022/03/30 11:35:21;;;;;;;3.63;1.17;;;9.50;99.90;;;;;;5033327;28;20516;-80
2022/03/30 11:37:57;;;;;;;5.85;1.67;;;9.60;99.90;;;;;;5033423;28;20045;-80
2022/03/30 11:40:24;;;;;;;3.80;1.35;;;9.40;99.90;;;;;;5033876;28;20440;-79
2022/03/30 11:42:54;;;;;;;;;;;9.20;99.90;;;;;;5033739;28;20076;-79
2022/03/30 11:45:23;;;;;;;4.05;1.30;;;9.30;99.90;;;;;;5016084;28;20358;-79
2022/03/30 11:47:54;;;;;;;4.47;1.30;;;9.30;99.90;;;;;;5033544;28;20120;-81
2022/03/30 11:50:31;;;;;;;2.60;1.20;;;9.20;99.90;;;;;;5033487;28;20136;-80
2022/03/30 11:53:08;;;;;;;3.70;1.27;;;9.20;99.90;;;;;;5033403;28;20053;-83
2022/03/30 11:55:57;;;;;;;2.05;1.25;;;9.20;99.90;;;;;;5016687;28;20048;-82
2022/03/30 11:58:30;;;;;;;2.00;1.20;;;9.30;99.90;;;;;;5003510;28;20041;-82
2022/03/30 12:00:59;;;;;;;4.05;1.30;;;9.20;99.90;;;;;;5019986;28;20485;-82
2022/03/30 12:03:26;;;;;;;3.22;1.27;;;9.20;99.90;;;;;;5019811;28;20077;-78
2022/03/30 12:05:55;;;;;;;2.08;1.40;;;9.30;99.90;;;;;;5037105;28;20041;-81
2022/03/30 12:08:21;;;;;;;1.75;1.00;;;9.30;99.90;;;;;;5037153;28;20048;-80
2022/03/30 12:10:48;;;;;;;2.67;1.30;;;9.40;99.90;;;;;;5019734;28;20045;-79
2022/03/30 12:13:20;;;;;;;2.15;1.10;;;9.40;99.90;;;;;;5036887;28;20049;-81
2022/03/30 12:15:45;;;;;;;3.50;1.25;;;9.30;99.90;;;;;;5019653;28;20610;-80
2022/03/30 12:18:11;;;;;;;1.75;1.05;;;9.00;99.90;;;;;;5037315;28;20068;-82
2022/03/30 12:20:36;;;;;;;2.45;1.05;;;9.00;99.90;;;;;;5035652;28;20103;-81
2022/03/30 12:23:05;;;;;;;2.08;1.13;;;9.10;99.90;;;;;;5036649;28;20122;-81
2022/03/30 12:25:33;;;;;;;4.03;1.20;;;9.10;99.90;;;;;;5036919;28;20052;-80
2022/03/30 12:28:00;;;;;;;1.58;1.00;;;9.10;99.90;;;;;;5018961;28;20052;-81
2022/03/30 12:30:27;;;;;;;;;;;9.20;99.90;;;;;;5036929;28;20079;-80
2022/03/30 12:32:53;;;;;;;3.57;1.43;;;9.20;99.90;;;;;;5035760;28;19921;-82
2022/03/30 12:35:19;;;;;;;2.42;1.27;;;9.20;99.90;;;;;;5035582;28;20069;-81
2022/03/30 12:37:46;;;;;;;2.25;1.15;;;9.30;99.90;;;;;;5018999;28;20367;-82
2022/03/30 12:40:21;;;;;;;3.40;1.30;;;9.50;99.90;;;;;;5036696;28;20072;-83
2022/03/30 12:42:48;;;;;;;2.17;1.20;;;9.50;99.90;;;;;;5018964;28;20053;-83
2022/03/30 12:45:15;;;;;;;;;;;9.50;99.90;;;;;;5036885;28;20049;-83
2022/03/30 12:47:51;;;;;;;1.95;1.10;;;9.60;99.90;;;;;;5036619;28;20300;-84
2022/03/30 12:50:35;;;;;;;4.63;1.48;;;9.60;99.90;;;;;;5018976;28;20453;-85
2022/03/30 12:53:20;;;;;;;2.88;1.10;;;9.40;99.90;;;;;;5035430;28;20489;-83
2022/03/30 12:55:53;;;;;;;3.45;1.10;;;9.30;99.90;;;;;;5018980;28;20045;-83
2022/03/30 12:58:23;;;;;;;2.20;1.10;;;9.30;99.90;;;;;;5018610;28;20041;-82
2022/03/30 13:00:54;;;;;;;2.22;1.20;;;9.30;99.90;;;;;;5002440;28;20049;-83
2022/03/30 13:03:29;;;;;;;2.60;1.02;;;9.40;99.90;;;;;;5034948;28;20474;-83